sensor_id;sensor_type;location;lat;lon;timestamp;pressure;altitude;pressure_sealevel;temperature;humidity
65666;BME280;52365;47.464;18.976;2023-04-29T00:00:08;99701.66;;;14.09;53.28
65666;BME280;52365;47.464;18.976;2023-04-29T00:00:30;99700.56;;;14.21;53.32
65666;BME280;52365;47.464;18.976;2023-04-29T00:00:51;99707.03;;;14.03;54.19
65666;BME280;52365;47.464;18.976;2023-04-29T00:01:13;99702.16;;;14.07;54.12
65666;BME280;52365;47.464;18.976;2023-04-29T00:01:34;99705.44;;;14.17;53.99
65666;BME280;52365;47.464;18.976;2023-04-29T00:01:55;99707.69;;;13.93;53.74
65666;BME280;52365;47.464;18.976;2023-04-29T00:02:18;99700.28;;;13.67;54.37
65666;BME280;52365;47.464;18.976;2023-04-29T00:02:39;99702.31;;;13.31;55.28
65666;BME280;52365;47.464;18.976;2023-04-29T00:03:01;99699.62;;;13.31;55.62
65666;BME280;52365;47.464;18.976;2023-04-29T00:03:22;99704.75;;;13.29;56.40
65666;BME280;52365;47.464;18.976;2023-04-29T00:03:43;99703.13;;;13.38;55.66
65666;BME280;52365;47.464;18.976;2023-04-29T00:04:04;99700.09;;;13.15;55.98
65666;BME280;52365;47.464;18.976;2023-04-29T00:04:25;99700.06;;;13.30;55.74
65666;BME280;52365;47.464;18.976;2023-04-29T00:04:46;99695.00;;;13.38;55.49
65666;BME280;52365;47.464;18.976;2023-04-29T00:05:02;99700.06;;;13.50;55.17
65666;BME280;52365;47.464;18.976;2023-04-29T00:05:24;99690.19;;;13.68;54.95
65666;BME280;52365;47.464;18.976;2023-04-29T00:05:45;99702.84;;;14.02;54.13
65666;BME280;52365;47.464;18.976;2023-04-29T00:06:06;99695.13;;;14.21;53.54
65666;BME280;52365;47.464;18.976;2023-04-29T00:06:27;99690.34;;;14.36;53.46
65666;BME280;52365;47.464;18.976;2023-04-29T00:06:48;99692.16;;;14.45;53.13
65666;BME280;52365;47.464;18.976;2023-04-29T00:07:09;99692.03;;;14.60;52.93
65666;BME280;52365;47.464;18.976;2023-04-29T00:07:35;99696.28;;;14.67;52.29
65666;BME280;52365;47.464;18.976;2023-04-29T00:07:56;99692.38;;;14.73;51.94
65666;BME280;52365;47.464;18.976;2023-04-29T00:08:17;99682.56;;;14.87;51.76
65666;BME280;52365;47.464;18.976;2023-04-29T00:08:38;99692.03;;;14.97;51.36
65666;BME280;52365;47.464;18.976;2023-04-29T00:08:59;99694.75;;;15.03;50.88
65666;BME280;52365;47.464;18.976;2023-04-29T00:09:21;99690.09;;;15.03;50.77
65666;BME280;52365;47.464;18.976;2023-04-29T00:09:42;99694.03;;;15.02;50.83
65666;BME280;52365;47.464;18.976;2023-04-29T00:10:03;99692.97;;;14.57;51.44
65666;BME280;52365;47.464;18.976;2023-04-29T00:10:25;99688.47;;;14.22;52.75
65666;BME280;52365;47.464;18.976;2023-04-29T00:10:46;99695.41;;;13.71;54.07
65666;BME280;52365;47.464;18.976;2023-04-29T00:11:07;99699.00;;;13.42;55.04
65666;BME280;52365;47.464;18.976;2023-04-29T00:11:28;99693.12;;;13.44;55.59
65666;BME280;52365;47.464;18.976;2023-04-29T00:11:49;99695.81;;;13.64;55.08
65666;BME280;52365;47.464;18.976;2023-04-29T00:12:11;99693.19;;;13.49;54.82
65666;BME280;52365;47.464;18.976;2023-04-29T00:12:32;99688.81;;;13.17;56.33
65666;BME280;52365;47.464;18.976;2023-04-29T00:12:53;99692.94;;;13.12;56.78
65666;BME280;52365;47.464;18.976;2023-04-29T00:13:14;99700.06;;;13.30;56.81
65666;BME280;52365;47.464;18.976;2023-04-29T00:13:35;99692.78;;;13.01;57.18
65666;BME280;52365;47.464;18.976;2023-04-29T00:13:56;99694.44;;;13.13;57.19
65666;BME280;52365;47.464;18.976;2023-04-29T00:14:17;99694.59;;;13.24;57.09
65666;BME280;52365;47.464;18.976;2023-04-29T00:14:38;99702.44;;;13.22;56.46
65666;BME280;52365;47.464;18.976;2023-04-29T00:14:59;99694.19;;;13.31;56.35
65666;BME280;52365;47.464;18.976;2023-04-29T00:15:22;99690.47;;;13.29;56.20
65666;BME280;52365;47.464;18.976;2023-04-29T00:15:43;99691.91;;;13.45;55.94
65666;BME280;52365;47.464;18.976;2023-04-29T00:16:05;99696.44;;;13.53;55.77
65666;BME280;52365;47.464;18.976;2023-04-29T00:16:26;99690.56;;;13.81;55.14
65666;BME280;52365;47.464;18.976;2023-04-29T00:16:47;99690.91;;;13.89;54.60
65666;BME280;52365;47.464;18.976;2023-04-29T00:17:08;99687.84;;;13.81;54.66
65666;BME280;52365;47.464;18.976;2023-04-29T00:17:29;99682.94;;;13.79;54.62
65666;BME280;52365;47.464;18.976;2023-04-29T00:17:50;99691.88;;;13.65;55.12
65666;BME280;52365;47.464;18.976;2023-04-29T00:18:11;99688.16;;;13.42;56.11
65666;BME280;52365;47.464;18.976;2023-04-29T00:18:33;99691.00;;;13.33;56.62
65666;BME280;52365;47.464;18.976;2023-04-29T00:18:54;99683.97;;;13.41;56.51
65666;BME280;52365;47.464;18.976;2023-04-29T00:19:16;99691.84;;;13.39;56.79
65666;BME280;52365;47.464;18.976;2023-04-29T00:19:38;99692.03;;;13.35;56.55
65666;BME280;52365;47.464;18.976;2023-04-29T00:19:59;99688.16;;;13.22;56.63
65666;BME280;52365;47.464;18.976;2023-04-29T00:20:20;99678.34;;;13.24;56.51
65666;BME280;52365;47.464;18.976;2023-04-29T00:20:41;99684.59;;;13.30;56.49
65666;BME280;52365;47.464;18.976;2023-04-29T00:21:03;99685.88;;;13.35;56.40
65666;BME280;52365;47.464;18.976;2023-04-29T00:21:26;99690.41;;;13.23;56.60
65666;BME280;52365;47.464;18.976;2023-04-29T00:21:48;99692.28;;;13.38;56.40
65666;BME280;52365;47.464;18.976;2023-04-29T00:22:09;99684.91;;;13.18;56.72
65666;BME280;52365;47.464;18.976;2023-04-29T00:22:30;99686.34;;;13.33;56.55
65666;BME280;52365;47.464;18.976;2023-04-29T00:22:51;99685.00;;;13.44;56.35
65666;BME280;52365;47.464;18.976;2023-04-29T00:23:12;99685.94;;;13.61;56.03
65666;BME280;52365;47.464;18.976;2023-04-29T00:23:33;99684.22;;;13.43;56.00
65666;BME280;52365;47.464;18.976;2023-04-29T00:23:55;99690.69;;;13.46;56.63
65666;BME280;52365;47.464;18.976;2023-04-29T00:24:16;99680.13;;;13.48;56.21
65666;BME280;52365;47.464;18.976;2023-04-29T00:24:37;99685.09;;;13.75;55.87
65666;BME280;52365;47.464;18.976;2023-04-29T00:24:58;99690.94;;;13.68;55.61
65666;BME280;52365;47.464;18.976;2023-04-29T00:25:19;99686.81;;;13.52;56.10
65666;BME280;52365;47.464;18.976;2023-04-29T00:25:40;99683.22;;;13.41;56.37
65666;BME280;52365;47.464;18.976;2023-04-29T00:26:01;99683.91;;;13.35;56.62
65666;BME280;52365;47.464;18.976;2023-04-29T00:26:22;99686.72;;;13.67;56.22
65666;BME280;52365;47.464;18.976;2023-04-29T00:26:43;99679.38;;;13.47;55.62
65666;BME280;52365;47.464;18.976;2023-04-29T00:27:04;99685.34;;;13.31;56.32
65666;BME280;52365;47.464;18.976;2023-04-29T00:27:26;99677.31;;;13.22;56.31
65666;BME280;52365;47.464;18.976;2023-04-29T00:27:47;99669.53;;;13.09;56.60
65666;BME280;52365;47.464;18.976;2023-04-29T00:28:08;99675.63;;;13.04;57.01
65666;BME280;52365;47.464;18.976;2023-04-29T00:28:29;99676.88;;;13.23;57.02
65666;BME280;52365;47.464;18.976;2023-04-29T00:28:50;99677.53;;;13.39;56.42
65666;BME280;52365;47.464;18.976;2023-04-29T00:29:11;99679.72;;;13.34;56.20
65666;BME280;52365;47.464;18.976;2023-04-29T00:29:32;99678.34;;;13.24;56.15
65666;BME280;52365;47.464;18.976;2023-04-29T00:29:53;99671.66;;;13.40;56.01
65666;BME280;52365;47.464;18.976;2023-04-29T00:30:14;99680.78;;;13.63;55.53
65666;BME280;52365;47.464;18.976;2023-04-29T00:30:35;99676.44;;;13.71;55.74
65666;BME280;52365;47.464;18.976;2023-04-29T00:30:56;99675.34;;;13.83;55.30
65666;BME280;52365;47.464;18.976;2023-04-29T00:31:18;99675.28;;;14.04;54.72
65666;BME280;52365;47.464;18.976;2023-04-29T00:31:39;99671.56;;;14.01;54.77
65666;BME280;52365;47.464;18.976;2023-04-29T00:32:00;99674.53;;;14.03;54.53
65666;BME280;52365;47.464;18.976;2023-04-29T00:32:21;99671.41;;;13.84;55.21
65666;BME280;52365;47.464;18.976;2023-04-29T00:32:42;99674.88;;;13.65;56.13
65666;BME280;52365;47.464;18.976;2023-04-29T00:33:04;99673.13;;;13.62;56.63
65666;BME280;52365;47.464;18.976;2023-04-29T00:33:25;99685.19;;;13.40;57.18
65666;BME280;52365;47.464;18.976;2023-04-29T00:33:41;99680.00;;;13.37;57.63
65666;BME280;52365;47.464;18.976;2023-04-29T00:34:02;99678.16;;;13.28;57.63
65666;BME280;52365;47.464;18.976;2023-04-29T00:34:23;99680.91;;;13.13;58.46
65666;BME280;52365;47.464;18.976;2023-04-29T00:34:45;99681.97;;;13.01;59.47
65666;BME280;52365;47.464;18.976;2023-04-29T00:35:06;99677.72;;;13.15;59.28
65666;BME280;52365;47.464;18.976;2023-04-29T00:35:27;99677.84;;;13.05;59.16
65666;BME280;52365;47.464;18.976;2023-04-29T00:35:48;99682.31;;;13.08;59.20
65666;BME280;52365;47.464;18.976;2023-04-29T00:36:09;99682.88;;;13.13;58.87
65666;BME280;52365;47.464;18.976;2023-04-29T00:36:30;99678.03;;;13.02;59.48
65666;BME280;52365;47.464;18.976;2023-04-29T00:36:52;99685.47;;;13.07;59.50
65666;BME280;52365;47.464;18.976;2023-04-29T00:37:13;99682.22;;;13.03;59.39
65666;BME280;52365;47.464;18.976;2023-04-29T00:37:34;99684.19;;;13.38;59.02
65666;BME280;52365;47.464;18.976;2023-04-29T00:37:55;99684.53;;;13.45;58.63
65666;BME280;52365;47.464;18.976;2023-04-29T00:38:16;99679.41;;;13.73;57.93
65666;BME280;52365;47.464;18.976;2023-04-29T00:38:37;99684.53;;;13.92;57.22
65666;BME280;52365;47.464;18.976;2023-04-29T00:38:58;99684.12;;;14.04;57.04
65666;BME280;52365;47.464;18.976;2023-04-29T00:39:19;99691.81;;;13.59;57.77
65666;BME280;52365;47.464;18.976;2023-04-29T00:39:40;99695.53;;;13.62;57.84
65666;BME280;52365;47.464;18.976;2023-04-29T00:40:01;99685.16;;;13.60;58.13
65666;BME280;52365;47.464;18.976;2023-04-29T00:40:22;99691.91;;;13.91;57.61
65666;BME280;52365;47.464;18.976;2023-04-29T00:40:43;99695.25;;;14.06;56.83
65666;BME280;52365;47.464;18.976;2023-04-29T00:41:05;99692.81;;;14.08;56.67
65666;BME280;52365;47.464;18.976;2023-04-29T00:41:26;99691.78;;;13.80;57.19
65666;BME280;52365;47.464;18.976;2023-04-29T00:41:47;99696.44;;;13.53;57.67
65666;BME280;52365;47.464;18.976;2023-04-29T00:42:08;99699.47;;;13.61;58.34
65666;BME280;52365;47.464;18.976;2023-04-29T00:42:30;99689.50;;;13.99;57.59
65666;BME280;52365;47.464;18.976;2023-04-29T00:42:54;99688.13;;;14.09;56.81
65666;BME280;52365;47.464;18.976;2023-04-29T00:43:15;99691.53;;;14.04;56.82
65666;BME280;52365;47.464;18.976;2023-04-29T00:43:36;99689.78;;;14.27;56.50
65666;BME280;52365;47.464;18.976;2023-04-29T00:43:57;99697.25;;;14.38;56.06
65666;BME280;52365;47.464;18.976;2023-04-29T00:44:18;99694.53;;;14.38;55.33
65666;BME280;52365;47.464;18.976;2023-04-29T00:44:39;99690.72;;;14.50;54.84
65666;BME280;52365;47.464;18.976;2023-04-29T00:45:00;99694.44;;;14.52;54.53
65666;BME280;52365;47.464;18.976;2023-04-29T00:45:22;99701.44;;;14.65;54.15
65666;BME280;52365;47.464;18.976;2023-04-29T00:45:43;99695.25;;;14.64;53.98
65666;BME280;52365;47.464;18.976;2023-04-29T00:46:06;99695.50;;;14.66;53.96
65666;BME280;52365;47.464;18.976;2023-04-29T00:46:27;99690.78;;;14.29;54.91
65666;BME280;52365;47.464;18.976;2023-04-29T00:46:48;99698.88;;;13.98;56.32
65666;BME280;52365;47.464;18.976;2023-04-29T00:47:09;99701.00;;;13.88;57.20
65666;BME280;52365;47.464;18.976;2023-04-29T00:47:31;99703.22;;;13.90;57.33
65666;BME280;52365;47.464;18.976;2023-04-29T00:47:52;99706.25;;;13.97;57.10
65666;BME280;52365;47.464;18.976;2023-04-29T00:48:13;99695.94;;;14.27;56.53
65666;BME280;52365;47.464;18.976;2023-04-29T00:48:35;99693.59;;;14.41;56.01
65666;BME280;52365;47.464;18.976;2023-04-29T00:48:56;99699.19;;;14.31;55.13
65666;BME280;52365;47.464;18.976;2023-04-29T00:49:18;99700.09;;;14.23;54.95
65666;BME280;52365;47.464;18.976;2023-04-29T00:49:39;99692.72;;;14.23;55.00
65666;BME280;52365;47.464;18.976;2023-04-29T00:50:00;99696.50;;;14.37;54.97
65666;BME280;52365;47.464;18.976;2023-04-29T00:50:21;99695.69;;;14.57;54.77
65666;BME280;52365;47.464;18.976;2023-04-29T00:50:42;99694.50;;;14.58;54.54
65666;BME280;52365;47.464;18.976;2023-04-29T00:51:04;99697.25;;;14.38;55.19
65666;BME280;52365;47.464;18.976;2023-04-29T00:51:25;99695.50;;;14.08;55.57
65666;BME280;52365;47.464;18.976;2023-04-29T00:51:46;99695.66;;;13.73;56.62
65666;BME280;52365;47.464;18.976;2023-04-29T00:52:10;99700.12;;;13.76;56.83
65666;BME280;52365;47.464;18.976;2023-04-29T00:52:31;99695.84;;;13.90;56.40
65666;BME280;52365;47.464;18.976;2023-04-29T00:52:52;99699.47;;;13.41;56.32
65666;BME280;52365;47.464;18.976;2023-04-29T00:53:13;99694.94;;;13.52;56.51
65666;BME280;52365;47.464;18.976;2023-04-29T00:53:34;99694.19;;;13.52;57.11
65666;BME280;52365;47.464;18.976;2023-04-29T00:53:56;99695.41;;;13.51;57.40
65666;BME280;52365;47.464;18.976;2023-04-29T00:54:17;99703.66;;;13.62;57.32
65666;BME280;52365;47.464;18.976;2023-04-29T00:54:39;99700.28;;;13.67;57.02
65666;BME280;52365;47.464;18.976;2023-04-29T00:55:01;99696.37;;;13.48;56.94
65666;BME280;52365;47.464;18.976;2023-04-29T00:55:22;99702.09;;;13.55;57.26
65666;BME280;52365;47.464;18.976;2023-04-29T00:55:45;99698.84;;;13.51;57.01
65666;BME280;52365;47.464;18.976;2023-04-29T00:56:07;99692.09;;;13.41;57.02
65666;BME280;52365;47.464;18.976;2023-04-29T00:56:30;99697.38;;;13.30;57.45
65666;BME280;52365;47.464;18.976;2023-04-29T00:56:52;99690.00;;;13.30;57.80
65666;BME280;52365;47.464;18.976;2023-04-29T00:57:14;99695.97;;;13.34;57.43
65666;BME280;52365;47.464;18.976;2023-04-29T00:57:35;99699.31;;;13.29;57.70
65666;BME280;52365;47.464;18.976;2023-04-29T00:57:56;99697.31;;;13.45;57.50
65666;BME280;52365;47.464;18.976;2023-04-29T00:58:17;99693.03;;;13.38;57.74
65666;BME280;52365;47.464;18.976;2023-04-29T00:58:40;99696.78;;;13.61;57.41
65666;BME280;52365;47.464;18.976;2023-04-29T00:59:09;99696.09;;;13.66;57.09
65666;BME280;52365;47.464;18.976;2023-04-29T00:59:32;99697.28;;;13.65;56.88
65666;BME280;52365;47.464;18.976;2023-04-29T00:59:56;99697.03;;;13.63;57.14
65666;BME280;52365;47.464;18.976;2023-04-29T01:00:17;99697.56;;;13.67;57.22
65666;BME280;52365;47.464;18.976;2023-04-29T01:00:40;99693.22;;;13.75;56.96
65666;BME280;52365;47.464;18.976;2023-04-29T01:01:02;99695.75;;;13.58;56.82
65666;BME280;52365;47.464;18.976;2023-04-29T01:01:26;99699.25;;;13.65;57.03
65666;BME280;52365;47.464;18.976;2023-04-29T01:01:47;99699.75;;;13.43;56.20
65666;BME280;52365;47.464;18.976;2023-04-29T01:02:08;99683.72;;;13.39;56.16
65666;BME280;52365;47.464;18.976;2023-04-29T01:02:30;99697.97;;;13.60;55.93
65666;BME280;52365;47.464;18.976;2023-04-29T01:02:51;99690.13;;;13.42;56.43
65666;BME280;52365;47.464;18.976;2023-04-29T01:03:14;99696.63;;;13.50;56.46
65666;BME280;52365;47.464;18.976;2023-04-29T01:03:35;99693.38;;;13.46;56.91
65666;BME280;52365;47.464;18.976;2023-04-29T01:03:56;99691.06;;;13.39;56.73
65666;BME280;52365;47.464;18.976;2023-04-29T01:04:18;99694.19;;;13.31;57.05
65666;BME280;52365;47.464;18.976;2023-04-29T01:04:39;99695.28;;;13.40;57.12
65666;BME280;52365;47.464;18.976;2023-04-29T01:05:00;99689.09;;;13.19;57.58
65666;BME280;52365;47.464;18.976;2023-04-29T01:05:24;99692.38;;;13.08;58.55
65666;BME280;52365;47.464;18.976;2023-04-29T01:05:47;99692.66;;;13.10;58.94
65666;BME280;52365;47.464;18.976;2023-04-29T01:07:06;99692.78;;;13.21;58.25
65666;BME280;52365;47.464;18.976;2023-04-29T01:09:49;99697.56;;;13.67;55.68
65666;BME280;52365;47.464;18.976;2023-04-29T01:10:26;99689.94;;;13.66;55.74
65666;BME280;52365;47.464;18.976;2023-04-29T01:10:53;99689.31;;;13.56;56.59
65666;BME280;52365;47.464;18.976;2023-04-29T01:11:19;99686.69;;;13.41;55.85
65666;BME280;52365;47.464;18.976;2023-04-29T01:12:27;99694.81;;;13.06;56.18
65666;BME280;52365;47.464;18.976;2023-04-29T01:13:28;99693.88;;;13.09;56.48
65666;BME280;52365;47.464;18.976;2023-04-29T01:13:57;99698.41;;;13.53;55.72
65666;BME280;52365;47.464;18.976;2023-04-29T01:14:19;99694.75;;;13.35;55.84
65666;BME280;52365;47.464;18.976;2023-04-29T01:14:47;99695.34;;;13.66;55.61
65666;BME280;52365;47.464;18.976;2023-04-29T01:15:48;99699.19;;;13.59;55.17
65666;BME280;52365;47.464;18.976;2023-04-29T01:16:42;99696.09;;;13.66;54.96
65666;BME280;52365;47.464;18.976;2023-04-29T01:17:16;99700.38;;;13.52;55.36
65666;BME280;52365;47.464;18.976;2023-04-29T01:17:41;99701.66;;;13.57;55.72
65666;BME280;52365;47.464;18.976;2023-04-29T01:18:29;99699.03;;;13.68;55.63
65666;BME280;52365;47.464;18.976;2023-04-29T01:19:00;99698.31;;;13.68;55.47
65666;BME280;52365;47.464;18.976;2023-04-29T01:19:49;99698.38;;;13.32;56.69
65666;BME280;52365;47.464;18.976;2023-04-29T01:20:11;99689.66;;;13.23;57.30
65666;BME280;52365;47.464;18.976;2023-04-29T01:20:34;99690.94;;;13.27;57.31
65666;BME280;52365;47.464;18.976;2023-04-29T01:20:57;99688.50;;;13.50;56.62
65666;BME280;52365;47.464;18.976;2023-04-29T01:21:19;99691.47;;;13.52;56.08
65666;BME280;52365;47.464;18.976;2023-04-29T01:21:47;99692.09;;;13.41;56.10
65666;BME280;52365;47.464;18.976;2023-04-29T01:22:08;99693.59;;;13.42;56.25
65666;BME280;52365;47.464;18.976;2023-04-29T01:22:29;99689.88;;;13.40;56.47
65666;BME280;52365;47.464;18.976;2023-04-29T01:22:51;99690.72;;;13.51;56.43
65666;BME280;52365;47.464;18.976;2023-04-29T01:23:12;99690.00;;;13.51;56.13
65666;BME280;52365;47.464;18.976;2023-04-29T01:23:33;99694.94;;;13.32;56.34
65666;BME280;52365;47.464;18.976;2023-04-29T01:23:54;99690.72;;;13.51;56.20
65666;BME280;52365;47.464;18.976;2023-04-29T01:24:17;99692.78;;;13.36;56.46
65666;BME280;52365;47.464;18.976;2023-04-29T01:24:39;99688.25;;;13.48;56.45
65666;BME280;52365;47.464;18.976;2023-04-29T01:25:00;99695.59;;;13.47;56.52
65666;BME280;52365;47.464;18.976;2023-04-29T01:25:21;99688.91;;;13.63;56.17
65666;BME280;52365;47.464;18.976;2023-04-29T01:25:42;99693.97;;;13.55;55.91
65666;BME280;52365;47.464;18.976;2023-04-29T01:26:03;99693.53;;;13.57;56.15
65666;BME280;52365;47.464;18.976;2023-04-29T01:26:27;99686.16;;;13.57;56.16
65666;BME280;52365;47.464;18.976;2023-04-29T01:27:01;99688.25;;;13.48;56.05
65666;BME280;52365;47.464;18.976;2023-04-29T01:27:36;99692.91;;;13.27;56.81
65666;BME280;52365;47.464;18.976;2023-04-29T01:28:18;99691.16;;;13.44;56.74
65666;BME280;52365;47.464;18.976;2023-04-29T01:28:56;99694.88;;;13.47;56.40
65666;BME280;52365;47.464;18.976;2023-04-29T01:29:44;99697.78;;;13.43;56.12
65666;BME280;52365;47.464;18.976;2023-04-29T01:30:09;99692.88;;;13.68;56.13
65666;BME280;52365;47.464;18.976;2023-04-29T01:31:52;99694.88;;;13.26;56.48
65666;BME280;52365;47.464;18.976;2023-04-29T01:32:20;99697.41;;;13.76;55.89
65666;BME280;52365;47.464;18.976;2023-04-29T01:32:57;99696.41;;;14.00;54.93
65666;BME280;52365;47.464;18.976;2023-04-29T01:34:29;99688.56;;;14.02;54.54
65666;BME280;52365;47.464;18.976;2023-04-29T01:34:59;99685.84;;;13.76;55.31
65666;BME280;52365;47.464;18.976;2023-04-29T01:37:01;99685.25;;;13.25;56.82
65666;BME280;52365;47.464;18.976;2023-04-29T01:38:05;99687.87;;;13.60;56.22
65666;BME280;52365;47.464;18.976;2023-04-29T01:38:53;99682.56;;;13.46;55.05
65666;BME280;52365;47.464;18.976;2023-04-29T01:40:33;99683.75;;;13.04;56.86
65666;BME280;52365;47.464;18.976;2023-04-29T01:41:09;99686.16;;;13.37;56.72
65666;BME280;52365;47.464;18.976;2023-04-29T01:41:43;99682.22;;;13.38;56.94
65666;BME280;52365;47.464;18.976;2023-04-29T01:42:12;99679.84;;;12.90;58.18
65666;BME280;52365;47.464;18.976;2023-04-29T01:43:03;99684.47;;;13.04;58.19
65666;BME280;52365;47.464;18.976;2023-04-29T01:43:28;99679.19;;;13.16;58.15
65666;BME280;52365;47.464;18.976;2023-04-29T01:43:50;99678.47;;;13.15;57.75
65666;BME280;52365;47.464;18.976;2023-04-29T01:44:17;99679.69;;;13.14;57.83
65666;BME280;52365;47.464;18.976;2023-04-29T01:44:41;99676.25;;;13.34;57.52
65666;BME280;52365;47.464;18.976;2023-04-29T01:45:06;99678.66;;;13.11;57.71
65666;BME280;52365;47.464;18.976;2023-04-29T01:45:29;99677.91;;;12.91;58.66
65666;BME280;52365;47.464;18.976;2023-04-29T01:45:53;99678.56;;;12.85;57.96
65666;BME280;52365;47.464;18.976;2023-04-29T01:46:17;99676.91;;;13.08;57.38
65666;BME280;52365;47.464;18.976;2023-04-29T01:46:42;99678.63;;;13.47;56.29
65666;BME280;52365;47.464;18.976;2023-04-29T01:47:04;99676.66;;;13.47;55.74
65666;BME280;52365;47.464;18.976;2023-04-29T01:47:26;99674.38;;;13.40;55.88
65666;BME280;52365;47.464;18.976;2023-04-29T01:47:47;99673.84;;;13.01;56.99
65666;BME280;52365;47.464;18.976;2023-04-29T01:48:13;99680.31;;;12.89;57.66
65666;BME280;52365;47.464;18.976;2023-04-29T01:48:35;99682.84;;;12.92;57.74
65666;BME280;52365;47.464;18.976;2023-04-29T01:48:57;99675.03;;;12.79;57.78
65666;BME280;52365;47.464;18.976;2023-04-29T01:49:24;99674.13;;;13.03;57.47
65666;BME280;52365;47.464;18.976;2023-04-29T01:49:45;99674.66;;;13.07;56.96
65666;BME280;52365;47.464;18.976;2023-04-29T01:50:07;99677.09;;;13.05;56.47
65666;BME280;52365;47.464;18.976;2023-04-29T01:50:28;99673.78;;;12.95;56.68
65666;BME280;52365;47.464;18.976;2023-04-29T01:50:50;99671.75;;;13.10;56.86
65666;BME280;52365;47.464;18.976;2023-04-29T01:51:11;99676.13;;;13.43;56.08
65666;BME280;52365;47.464;18.976;2023-04-29T01:51:32;99674.09;;;13.38;55.56
65666;BME280;52365;47.464;18.976;2023-04-29T01:51:54;99672.81;;;13.33;55.86
65666;BME280;52365;47.464;18.976;2023-04-29T01:52:15;99669.78;;;13.26;55.94
65666;BME280;52365;47.464;18.976;2023-04-29T01:52:37;99671.50;;;13.08;56.75
65666;BME280;52365;47.464;18.976;2023-04-29T01:52:58;99671.41;;;13.03;56.91
65666;BME280;52365;47.464;18.976;2023-04-29T01:53:19;99670.59;;;12.97;57.10
65666;BME280;52365;47.464;18.976;2023-04-29T01:53:40;99674.81;;;13.18;57.00
65666;BME280;52365;47.464;18.976;2023-04-29T01:54:01;99681.59;;;13.28;56.16
65666;BME280;52365;47.464;18.976;2023-04-29T01:54:22;99683.50;;;13.22;56.36
65666;BME280;52365;47.464;18.976;2023-04-29T01:54:43;99677.78;;;13.20;56.16
65666;BME280;52365;47.464;18.976;2023-04-29T01:55:06;99677.97;;;13.31;55.89
65666;BME280;52365;47.464;18.976;2023-04-29T01:55:27;99680.13;;;13.48;55.46
65666;BME280;52365;47.464;18.976;2023-04-29T01:55:48;99684.56;;;13.10;55.78
65666;BME280;52365;47.464;18.976;2023-04-29T01:56:09;99681.00;;;13.39;55.59
65666;BME280;52365;47.464;18.976;2023-04-29T01:56:30;99679.44;;;13.32;55.60
65666;BME280;52365;47.464;18.976;2023-04-29T01:56:51;99678.91;;;13.28;55.92
65666;BME280;52365;47.464;18.976;2023-04-29T01:57:12;99674.81;;;13.59;55.39
65666;BME280;52365;47.464;18.976;2023-04-29T01:57:33;99680.78;;;13.43;54.83
65666;BME280;52365;47.464;18.976;2023-04-29T01:57:54;99682.25;;;13.64;54.60
65666;BME280;52365;47.464;18.976;2023-04-29T01:58:15;99673.34;;;13.58;54.28
65666;BME280;52365;47.464;18.976;2023-04-29T01:58:36;99679.16;;;13.51;54.71
65666;BME280;52365;47.464;18.976;2023-04-29T01:58:57;99677.03;;;13.20;55.06
65666;BME280;52365;47.464;18.976;2023-04-29T01:59:18;99690.13;;;13.42;54.88
65666;BME280;52365;47.464;18.976;2023-04-29T01:59:39;99674.56;;;13.37;55.02
65666;BME280;52365;47.464;18.976;2023-04-29T02:00:01;99679.19;;;12.95;55.69
65666;BME280;52365;47.464;18.976;2023-04-29T02:00:24;99677.00;;;12.64;55.80
65666;BME280;52365;47.464;18.976;2023-04-29T02:00:45;99672.50;;;12.91;55.36
65666;BME280;52365;47.464;18.976;2023-04-29T02:01:06;99677.19;;;12.75;55.15
65666;BME280;52365;47.464;18.976;2023-04-29T02:01:29;99685.41;;;12.66;55.20
65666;BME280;52365;47.464;18.976;2023-04-29T02:01:51;99680.06;;;12.72;55.54
65666;BME280;52365;47.464;18.976;2023-04-29T02:02:12;99679.94;;;12.96;55.23
65666;BME280;52365;47.464;18.976;2023-04-29T02:02:34;99681.78;;;13.04;55.38
65666;BME280;52365;47.464;18.976;2023-04-29T02:02:56;99676.56;;;13.21;53.81
65666;BME280;52365;47.464;18.976;2023-04-29T02:03:17;99671.63;;;13.20;53.13
65666;BME280;52365;47.464;18.976;2023-04-29T02:03:38;99679.91;;;13.51;52.76
65666;BME280;52365;47.464;18.976;2023-04-29T02:03:59;99683.00;;;13.65;52.48
65666;BME280;52365;47.464;18.976;2023-04-29T02:04:20;99679.19;;;13.77;52.42
65666;BME280;52365;47.464;18.976;2023-04-29T02:04:41;99671.66;;;13.86;52.32
65666;BME280;52365;47.464;18.976;2023-04-29T02:05:02;99682.78;;;13.89;52.50
65666;BME280;52365;47.464;18.976;2023-04-29T02:05:23;99679.13;;;13.92;52.43
65666;BME280;52365;47.464;18.976;2023-04-29T02:05:44;99675.34;;;13.83;52.42
65666;BME280;52365;47.464;18.976;2023-04-29T02:06:05;99675.69;;;13.71;52.96
65666;BME280;52365;47.464;18.976;2023-04-29T02:06:29;99675.94;;;13.73;53.08
65666;BME280;52365;47.464;18.976;2023-04-29T02:06:51;99679.00;;;13.80;52.77
65666;BME280;52365;47.464;18.976;2023-04-29T02:07:12;99675.50;;;13.74;53.11
65666;BME280;52365;47.464;18.976;2023-04-29T02:07:33;99678.88;;;13.69;53.47
65666;BME280;52365;47.464;18.976;2023-04-29T02:07:55;99677.88;;;13.93;53.32
65666;BME280;52365;47.464;18.976;2023-04-29T02:08:16;99678.69;;;13.99;52.98
65666;BME280;52365;47.464;18.976;2023-04-29T02:08:37;99672.84;;;14.06;52.69
65666;BME280;52365;47.464;18.976;2023-04-29T02:08:58;99678.34;;;13.91;52.68
65666;BME280;52365;47.464;18.976;2023-04-29T02:09:19;99678.69;;;13.99;52.32
65666;BME280;52365;47.464;18.976;2023-04-29T02:09:41;99675.44;;;13.95;52.57
65666;BME280;52365;47.464;18.976;2023-04-29T02:10:02;99679.31;;;13.62;53.03
65666;BME280;52365;47.464;18.976;2023-04-29T02:10:23;99678.66;;;13.26;54.10